Time;durP1;ratioP1;P1;durP2;ratioP2;P2;SDS_P1;SDS_P2;PMS_P1;PMS_P2;Temp;Humidity;BMP_temperature;BMP_pressure;BME280_temperature;BME280_humidity;BME280_pressure;Samples;Min_cycle;Max_cycle;Signal;HPM_P1;HPM_P2
2023/08/28 00:01:15;;;;;;;0.10;0.10;;;;;;;;;;5087558;28;20048;-43
2023/08/28 00:03:42;;;;;;;0.10;0.10;;;;;;;;;;5086333;28;20052;-44
2023/08/28 00:06:08;;;;;;;0.10;0.10;;;;;;;;;;5087400;28;20052;-43
2023/08/28 00:08:34;;;;;;;0.10;0.10;;;;;;;;;;5090620;28;20650;-43
2023/08/28 00:11:00;;;;;;;0.10;0.10;;;;;;;;;;5087742;28;20055;-43
2023/08/28 00:13:25;;;;;;;0.10;0.10;;;;;;;;;;5086989;28;20056;-43
2023/08/28 00:15:51;;;;;;;0.10;0.10;;;;;;;;;;5086900;28;20148;-43
2023/08/28 00:18:17;;;;;;;0.20;0.20;;;;;;;;;;5089866;28;20489;-43
2023/08/28 00:20:42;;;;;;;0.10;0.10;;;;;;;;;;5087634;28;20046;-43
2023/08/28 00:23:08;;;;;;;0.10;0.10;;;;;;;;;;5086926;28;20048;-43
2023/08/28 00:25:33;;;;;;;0.10;0.10;;;;;;;;;;5087081;28;20044;-43
2023/08/28 00:27:59;;;;;;;0.10;0.10;;;;;;;;;;5095897;28;20163;-42
2023/08/28 00:30:24;;;;;;;0.10;0.10;;;;;;;;;;5107455;28;20413;-43
2023/08/28 00:32:50;;;;;;;0.10;0.10;;;;;;;;;;5106630;28;20312;-43
2023/08/28 00:35:16;;;;;;;0.10;0.10;;;;;;;;;;5107171;28;20043;-44
2023/08/28 00:37:41;;;;;;;0.10;0.10;;;;;;;;;;5106942;28;20401;-43
2023/08/28 00:40:07;;;;;;;0.10;0.10;;;;;;;;;;5107476;28;20645;-43
2023/08/28 00:42:32;;;;;;;0.10;0.10;;;;;;;;;;5106628;28;20052;-43
2023/08/28 00:44:58;;;;;;;0.10;0.10;;;;;;;;;;5106966;28;20051;-43
2023/08/28 00:47:24;;;;;;;0.10;0.10;;;;;;;;;;5106493;28;20054;-44
2023/08/28 00:49:50;;;;;;;0.10;0.10;;;;;;;;;;5107734;28;20048;-43
2023/08/28 00:52:16;;;;;;;0.10;0.10;;;;;;;;;;5107314;28;20051;-43
2023/08/28 00:54:41;;;;;;;0.10;0.10;;;;;;;;;;5106758;28;20055;-44
2023/08/28 00:57:08;;;;;;;0.10;0.10;;;;;;;;;;5114622;28;20454;-43
2023/08/28 00:59:33;;;;;;;0.10;0.10;;;;;;;;;;5086871;28;20052;-43
2023/08/28 01:01:59;;;;;;;0.10;0.10;;;;;;;;;;5086476;28;20040;-43
2023/08/28 01:04:24;;;;;;;0.10;0.10;;;;;;;;;;5086431;28;20500;-43
2023/08/28 01:06:54;;;;;;;0.10;0.10;;;;;;;;;;5086749;28;20097;-43
2023/08/28 01:09:38;;;;;;;0.10;0.10;;;;;;;;;;5087570;28;20052;-43
2023/08/28 01:12:13;;;;;;;0.10;0.10;;;;;;;;;;5086486;28;20513;-43
2023/08/28 01:14:48;;;;;;;0.10;0.10;;;;;;;;;;5086538;28;20140;-43
2023/08/28 01:17:14;;;;;;;0.10;0.10;;;;;;;;;;5090699;28;20097;-43
2023/08/28 01:19:41;;;;;;;0.10;0.10;;;;;;;;;;5110341;28;20138;-43
2023/08/28 01:22:26;;;;;;;0.10;0.10;;;;;;;;;;5108692;28;20077;-42
2023/08/28 01:24:53;;;;;;;0.10;0.10;;;;;;;;;;5109104;28;20048;-43
2023/08/28 01:27:20;;;;;;;0.10;0.10;;;;;;;;;;5105991;28;20051;-43
2023/08/28 01:30:03;;;;;;;0.10;0.10;;;;;;;;;;5110098;28;20047;-43
2023/08/28 01:32:28;;;;;;;0.10;0.10;;;;;;;;;;5109817;28;20276;-43
2023/08/28 01:34:54;;;;;;;0.10;0.10;;;;;;;;;;5110093;28;20387;-43
2023/08/28 01:37:20;;;;;;;0.13;0.13;;;;;;;;;;5103323;28;20242;-43
2023/08/28 01:39:49;;;;;;;0.10;0.10;;;;;;;;;;5110373;28;20226;-43
2023/08/28 01:42:15;;;;;;;0.10;0.10;;;;;;;;;;5109761;28;20040;-43
2023/08/28 01:44:41;;;;;;;0.10;0.10;;;;;;;;;;5109304;28;20055;-43
2023/08/28 01:47:06;;;;;;;0.10;0.10;;;;;;;;;;5109660;28;20040;-43
2023/08/28 01:49:32;;;;;;;0.10;0.10;;;;;;;;;;5109285;28;20055;-43
2023/08/28 01:51:58;;;;;;;0.10;0.10;;;;;;;;;;5109808;28;20050;-43
2023/08/28 01:54:23;;;;;;;0.10;0.10;;;;;;;;;;5109518;28;20442;-44
2023/08/28 01:56:49;;;;;;;0.10;0.10;;;;;;;;;;5115682;28;20047;-43
2023/08/28 01:59:15;;;;;;;0.10;0.10;;;;;;;;;;5112395;27;20043;-43
2023/08/28 02:01:41;;;;;;;0.10;0.10;;;;;;;;;;5109696;28;20055;-43
2023/08/28 02:04:07;;;;;;;0.10;0.10;;;;;;;;;;5109091;28;20063;-43
2023/08/28 02:06:32;;;;;;;0.10;0.10;;;;;;;;;;5109607;28;20051;-43
2023/08/28 02:08:58;;;;;;;0.10;0.10;;;;;;;;;;5109167;28;20104;-43
2023/08/28 02:11:23;;;;;;;0.10;0.10;;;;;;;;;;5109848;28;20051;-44
2023/08/28 02:13:49;;;;;;;0.10;0.10;;;;;;;;;;5108818;28;20071;-41
2023/08/28 02:16:15;;;;;;;0.10;0.10;;;;;;;;;;5109649;28;20082;-43
2023/08/28 02:18:41;;;;;;;0.10;0.10;;;;;;;;;;5108867;28;20505;-43
2023/08/28 02:21:06;;;;;;;0.10;0.10;;;;;;;;;;5109806;28;20047;-43
2023/08/28 02:23:32;;;;;;;0.20;0.20;;;;;;;;;;5109171;28;20127;-44
2023/08/28 02:25:57;;;;;;;0.10;0.10;;;;;;;;;;5109041;28;20067;-43
2023/08/28 02:28:23;;;;;;;0.20;0.20;;;;;;;;;;5104343;28;20047;-44
2023/08/28 02:30:49;;;;;;;0.10;0.10;;;;;;;;;;5109141;28;20051;-43
2023/08/28 02:33:14;;;;;;;0.10;0.10;;;;;;;;;;5108805;28;20575;-44
2023/08/28 02:35:40;;;;;;;0.10;0.10;;;;;;;;;;5109275;28;20047;-43
2023/08/28 02:38:08;;;;;;;0.10;0.10;;;;;;;;;;5108553;28;20062;-43
2023/08/28 02:40:35;;;;;;;0.10;0.10;;;;;;;;;;5109511;28;20075;-43
2023/08/28 02:43:05;;;;;;;0.10;0.10;;;;;;;;;;5108333;28;20107;-43
2023/08/28 02:45:32;;;;;;;0.10;0.10;;;;;;;;;;5109058;28;20075;-43
2023/08/28 02:47:57;;;;;;;0.10;0.10;;;;;;;;;;5107909;28;20484;-44
2023/08/28 02:50:23;;;;;;;0.10;0.10;;;;;;;;;;5109447;28;20054;-43
2023/08/28 02:52:48;;;;;;;0.20;0.20;;;;;;;;;;5108553;28;20070;-43
2023/08/28 02:55:14;;;;;;;0.10;0.10;;;;;;;;;;5108609;28;20623;-43
2023/08/28 02:57:39;;;;;;;0.10;0.10;;;;;;;;;;5115117;28;20539;-43
2023/08/28 03:00:05;;;;;;;0.10;0.10;;;;;;;;;;5108629;28;20508;-43
2023/08/28 03:02:31;;;;;;;0.10;0.10;;;;;;;;;;5108631;28;20047;-43
2023/08/28 03:04:56;;;;;;;0.10;0.10;;;;;;;;;;5108374;28;20455;-43
2023/08/28 03:07:22;;;;;;;0.10;0.10;;;;;;;;;;5107295;28;20569;-43
2023/08/28 03:09:47;;;;;;;0.10;0.10;;;;;;;;;;5107134;28;20047;-44
2023/08/28 03:12:13;;;;;;;0.10;0.10;;;;;;;;;;5108192;28;20043;-43
2023/08/28 03:14:38;;;;;;;0.10;0.10;;;;;;;;;;5107870;28;20462;-44
2023/08/28 03:17:05;;;;;;;0.20;0.20;;;;;;;;;;5108630;28;20550;-43
2023/08/28 03:19:30;;;;;;;0.10;0.10;;;;;;;;;;5104764;28;20543;-43
2023/08/28 03:21:56;;;;;;;0.10;0.10;;;;;;;;;;5108454;28;20043;-43
2023/08/28 03:24:21;;;;;;;0.10;0.10;;;;;;;;;;5107869;28;20092;-43
2023/08/28 03:26:47;;;;;;;0.10;0.10;;;;;;;;;;5107597;28;20047;-43
2023/08/28 03:29:12;;;;;;;0.10;0.10;;;;;;;;;;5101215;28;20039;-43
2023/08/28 03:31:38;;;;;;;0.10;0.10;;;;;;;;;;5108066;28;20047;-44
2023/08/28 03:34:04;;;;;;;0.10;0.10;;;;;;;;;;5108126;28;20104;-43
2023/08/28 03:36:29;;;;;;;0.10;0.10;;;;;;;;;;5108513;28;20131;-44
2023/08/28 03:38:55;;;;;;;0.10;0.10;;;;;;;;;;5106971;28;20051;-43
2023/08/28 03:41:20;;;;;;;0.10;0.10;;;;;;;;;;5108141;28;20415;-43
2023/08/28 03:43:46;;;;;;;0.10;0.10;;;;;;;;;;5107157;28;20090;-43
2023/08/28 03:46:11;;;;;;;0.10;0.10;;;;;;;;;;5107420;28;20058;-42
2023/08/28 03:48:37;;;;;;;0.10;0.10;;;;;;;;;;5107520;28;20094;-44
2023/08/28 03:51:03;;;;;;;0.10;0.10;;;;;;;;;;5108099;28;20143;-43
2023/08/28 03:53:28;;;;;;;0.10;0.10;;;;;;;;;;5107665;28;20533;-44
2023/08/28 03:55:54;;;;;;;0.10;0.10;;;;;;;;;;5108040;28;20044;-44
2023/08/28 03:58:22;;;;;;;0.10;0.10;;;;;;;;;;5102592;28;20064;-43
2023/08/28 04:00:50;;;;;;;0.10;0.10;;;;;;;;;;5087583;28;20407;-43
2023/08/28 04:03:16;;;;;;;0.10;0.10;;;;;;;;;;5087226;28;20342;-43
2023/08/28 04:05:42;;;;;;;0.10;0.10;;;;;;;;;;5087396;28;20093;-43
2023/08/28 04:08:08;;;;;;;0.10;0.10;;;;;;;;;;5089840;28;20058;-43
2023/08/28 04:10:33;;;;;;;0.10;0.10;;;;;;;;;;5107475;28;20074;-43
2023/08/28 04:12:59;;;;;;;0.10;0.10;;;;;;;;;;5107460;28;20455;-43
2023/08/28 04:15:24;;;;;;;0.10;0.10;;;;;;;;;;5107424;28;20467;-44
2023/08/28 04:17:50;;;;;;;0.10;0.10;;;;;;;;;;5106771;28;20126;-44
2023/08/28 04:20:15;;;;;;;0.10;0.10;;;;;;;;;;5107313;28;20382;-43
2023/08/28 04:22:43;;;;;;;0.10;0.10;;;;;;;;;;5107444;28;20558;-43
2023/08/28 04:25:09;;;;;;;0.10;0.10;;;;;;;;;;5107459;28;20074;-43
2023/08/28 04:27:35;;;;;;;0.10;0.10;;;;;;;;;;5107159;28;20097;-43
2023/08/28 04:30:01;;;;;;;0.10;0.10;;;;;;;;;;5107257;28;20051;-43
2023/08/28 04:32:26;;;;;;;0.10;0.10;;;;;;;;;;5107356;28;20135;-43
2023/08/28 04:34:52;;;;;;;0.10;0.10;;;;;;;;;;5106994;28;20508;-43
2023/08/28 04:37:17;;;;;;;0.10;0.10;;;;;;;;;;5106494;28;20383;-43
2023/08/28 04:39:44;;;;;;;0.10;0.10;;;;;;;;;;5102519;28;20473;-43
2023/08/28 04:42:09;;;;;;;0.10;0.10;;;;;;;;;;5106913;28;20054;-43
2023/08/28 04:44:35;;;;;;;0.10;0.10;;;;;;;;;;5107061;28;20048;-42
2023/08/28 04:47:01;;;;;;;0.10;0.10;;;;;;;;;;5107415;28;20047;-44
2023/08/28 04:49:26;;;;;;;0.10;0.10;;;;;;;;;;5105708;28;20203;-43
2023/08/28 04:51:54;;;;;;;0.10;0.10;;;;;;;;;;5110422;28;20115;-43
2023/08/28 04:54:19;;;;;;;0.10;0.10;;;;;;;;;;5110478;28;20481;-43
2023/08/28 04:56:45;;;;;;;0.10;0.10;;;;;;;;;;5114261;28;20082;-43
2023/08/28 04:59:11;;;;;;;0.10;0.10;;;;;;;;;;5108882;27;20052;-44
2023/08/28 05:01:36;;;;;;;0.10;0.10;;;;;;;;;;5110741;28;20256;-43
2023/08/28 05:04:02;;;;;;;0.10;0.10;;;;;;;;;;5110477;28;20534;-43
2023/08/28 05:06:28;;;;;;;0.10;0.10;;;;;;;;;;5110571;28;20071;-43
2023/08/28 05:08:54;;;;;;;0.10;0.10;;;;;;;;;;5103495;28;20704;-43
2023/08/28 05:11:19;;;;;;;0.17;0.17;;;;;;;;;;5110951;28;20123;-43
2023/08/28 05:13:45;;;;;;;0.10;0.10;;;;;;;;;;5109826;28;20043;-43
2023/08/28 05:16:10;;;;;;;0.10;0.10;;;;;;;;;;5110569;28;20051;-43
2023/08/28 05:18:36;;;;;;;0.10;0.10;;;;;;;;;;5102721;28;20114;-43
2023/08/28 05:21:02;;;;;;;0.10;0.10;;;;;;;;;;5110481;28;20421;-43
2023/08/28 05:23:27;;;;;;;0.10;0.10;;;;;;;;;;5109874;28;20097;-43
2023/08/28 05:25:54;;;;;;;0.10;0.10;;;;;;;;;;5110184;28;20139;-43
2023/08/28 05:28:20;;;;;;;0.10;0.10;;;;;;;;;;5097681;28;20482;-43
2023/08/28 05:30:45;;;;;;;0.10;0.10;;;;;;;;;;5110462;28;20104;-43
2023/08/28 05:33:11;;;;;;;0.10;0.10;;;;;;;;;;5100761;28;20059;-43
2023/08/28 05:35:36;;;;;;;0.10;0.10;;;;;;;;;;5096898;28;20569;-43
2023/08/28 05:38:03;;;;;;;0.15;0.15;;;;;;;;;;5109419;28;20077;-43
2023/08/28 05:40:28;;;;;;;0.10;0.10;;;;;;;;;;5109402;28;20398;-43
2023/08/28 05:42:54;;;;;;;0.10;0.10;;;;;;;;;;5099632;28;20525;-43
2023/08/28 05:45:19;;;;;;;0.10;0.10;;;;;;;;;;5091839;28;20069;-43
2023/08/28 05:47:45;;;;;;;0.10;0.10;;;;;;;;;;5091726;28;20053;-43
2023/08/28 05:50:10;;;;;;;0.10;0.10;;;;;;;;;;5104808;28;20085;-43
2023/08/28 05:52:36;;;;;;;0.10;0.10;;;;;;;;;;5097881;28;20075;-44
2023/08/28 05:55:03;;;;;;;0.10;0.10;;;;;;;;;;5105755;28;20350;-42
2023/08/28 05:57:29;;;;;;;0.10;0.10;;;;;;;;;;5099108;28;20074;-43
2023/08/28 05:59:54;;;;;;;0.10;0.10;;;;;;;;;;5090522;28;21426;-43
2023/08/28 06:02:20;;;;;;;0.10;0.10;;;;;;;;;;5088923;28;20096;-43
2023/08/28 06:04:47;;;;;;;0.10;0.10;;;;;;;;;;5094632;28;20052;-43
2023/08/28 06:07:15;;;;;;;0.10;0.10;;;;;;;;;;5089875;28;20486;-43
2023/08/28 06:09:41;;;;;;;0.10;0.10;;;;;;;;;;5103728;28;20142;-43
2023/08/28 06:12:07;;;;;;;0.10;0.10;;;;;;;;;;5110119;28;20508;-43
2023/08/28 06:14:32;;;;;;;0.10;0.10;;;;;;;;;;5102061;28;20048;-43
2023/08/28 06:16:58;;;;;;;0.20;0.20;;;;;;;;;;5104446;28;20047;-43
2023/08/28 06:19:24;;;;;;;0.10;0.10;;;;;;;;;;5096895;28;20052;-43
2023/08/28 06:21:50;;;;;;;0.10;0.10;;;;;;;;;;5094722;28;20108;-43
2023/08/28 06:24:16;;;;;;;0.10;0.10;;;;;;;;;;5091010;28;20498;-43
2023/08/28 06:26:42;;;;;;;0.20;0.20;;;;;;;;;;5100009;28;20123;-43
2023/08/28 06:29:07;;;;;;;0.10;0.10;;;;;;;;;;5100822;27;20143;-44
2023/08/28 06:31:33;;;;;;;0.10;0.10;;;;;;;;;;5092405;28;20059;-44
2023/08/28 06:33:59;;;;;;;0.10;0.10;;;;;;;;;;5097354;28;20044;-42
2023/08/28 06:36:24;;;;;;;0.10;0.10;;;;;;;;;;5088619;28;20191;-43
2023/08/28 06:38:52;;;;;;;0.15;0.15;;;;;;;;;;5093848;28;20051;-43
2023/08/28 06:41:18;;;;;;;0.10;0.10;;;;;;;;;;5094201;28;20047;-43
2023/08/28 06:43:44;;;;;;;0.10;0.10;;;;;;;;;;5094989;28;20089;-43
2023/08/28 06:46:09;;;;;;;0.20;0.20;;;;;;;;;;5098123;28;20055;-45
2023/08/28 06:48:35;;;;;;;0.10;0.10;;;;;;;;;;5091706;28;20039;-44
2023/08/28 06:51:00;;;;;;;0.10;0.10;;;;;;;;;;5094497;28;20144;-42
2023/08/28 06:53:26;;;;;;;0.10;0.10;;;;;;;;;;5091231;28;20077;-43
2023/08/28 06:55:52;;;;;;;0.10;0.10;;;;;;;;;;5085861;28;20470;-45
2023/08/28 06:58:17;;;;;;;0.10;0.10;;;;;;;;;;5093999;28;20465;-43
2023/08/28 07:00:44;;;;;;;0.10;0.10;;;;;;;;;;5084094;28;20484;-43
2023/08/28 07:03:09;;;;;;;0.10;0.10;;;;;;;;;;5082573;28;20105;-43
2023/08/28 07:05:36;;;;;;;0.10;0.10;;;;;;;;;;5089242;28;20047;-44
2023/08/28 07:08:01;;;;;;;0.10;0.10;;;;;;;;;;5096586;28;20084;-43
2023/08/28 07:10:27;;;;;;;0.10;0.10;;;;;;;;;;5093094;28;20051;-44
2023/08/28 07:12:52;;;;;;;0.10;0.10;;;;;;;;;;5094639;28;20515;-43
2023/08/28 07:17:53;;;;;;;0.10;0.10;;;;;;;;;;5176744;27;20427;-43
2023/08/28 07:20:20;;;;;;;0.10;0.10;;;;;;;;;;5151819;27;20051;-44
2023/08/28 07:22:46;;;;;;;0.10;0.10;;;;;;;;;;5150026;27;20051;-43
2023/08/28 07:25:11;;;;;;;0.10;0.10;;;;;;;;;;5148088;27;20046;-43
2023/08/28 07:27:37;;;;;;;0.10;0.10;;;;;;;;;;5147697;27;20353;-43
2023/08/28 07:30:04;;;;;;;0.10;0.10;;;;;;;;;;5145629;27;20050;-44
2023/08/28 07:32:31;;;;;;;0.10;0.10;;;;;;;;;;5147520;27;20494;-43
2023/08/28 07:34:59;;;;;;;0.10;0.10;;;;;;;;;;5148538;27;20466;-43
2023/08/28 07:37:28;;;;;;;0.10;0.10;;;;;;;;;;5147654;27;20656;-43
2023/08/28 07:39:54;;;;;;;0.10;0.10;;;;;;;;;;5148640;27;20042;-45
2023/08/28 07:42:20;;;;;;;0.10;0.10;;;;;;;;;;5133750;27;20136;-46
2023/08/28 07:44:47;;;;;;;;;;;;;;;;;;5131206;27;20075;-43
2023/08/28 07:47:13;;;;;;;0.10;0.10;;;;;;;;;;5127513;27;19920;-43
2023/08/28 07:49:39;;;;;;;0.10;0.10;;;;;;;;;;5130401;27;20131;-43
2023/08/28 07:52:05;;;;;;;0.10;0.10;;;;;;;;;;5130817;27;20177;-44
2023/08/28 07:54:30;;;;;;;0.10;0.10;;;;;;;;;;5132772;27;20057;-43
2023/08/28 07:56:56;;;;;;;0.10;0.10;;;;;;;;;;5127585;27;20043;-43
2023/08/28 07:59:21;;;;;;;0.10;0.10;;;;;;;;;;5129130;27;20074;-43
2023/08/28 08:01:47;;;;;;;0.15;0.15;;;;;;;;;;5114114;27;20461;-43
2023/08/28 08:04:13;;;;;;;0.10;0.10;;;;;;;;;;5133152;27;20485;-43
2023/08/28 08:06:38;;;;;;;0.10;0.10;;;;;;;;;;5133439;27;20062;-44
2023/08/28 08:09:04;;;;;;;0.10;0.10;;;;;;;;;;5128484;27;20051;-43
2023/08/28 08:11:30;;;;;;;0.10;0.10;;;;;;;;;;5131845;27;20514;-43
2023/08/28 08:13:55;;;;;;;0.10;0.10;;;;;;;;;;5131770;27;20387;-43
2023/08/28 08:16:21;;;;;;;0.10;0.10;;;;;;;;;;5136677;27;20046;-43
2023/08/28 08:18:46;;;;;;;0.10;0.10;;;;;;;;;;5131577;27;20339;-43
2023/08/28 08:21:12;;;;;;;0.10;0.10;;;;;;;;;;5136424;27;20035;-44
2023/08/28 08:23:37;;;;;;;0.10;0.10;;;;;;;;;;5139662;27;20289;-43
2023/08/28 08:26:03;;;;;;;0.10;0.10;;;;;;;;;;5135633;27;20039;-44
2023/08/28 08:28:29;;;;;;;0.10;0.10;;;;;;;;;;5127450;27;20054;-43
2023/08/28 08:30:55;;;;;;;0.10;0.10;;;;;;;;;;5116495;27;20082;-43
2023/08/28 08:33:21;;;;;;;0.10;0.10;;;;;;;;;;5116859;27;20201;-43
2023/08/28 08:35:46;;;;;;;0.10;0.10;;;;;;;;;;5118446;27;20146;-43
2023/08/28 08:38:12;;;;;;;0.10;0.10;;;;;;;;;;5117808;27;20051;-43
2023/08/28 08:40:39;;;;;;;0.10;0.10;;;;;;;;;;5115403;27;20112;-44
2023/08/28 08:43:05;;;;;;;0.10;0.10;;;;;;;;;;5115965;27;20086;-43
2023/08/28 08:45:34;;;;;;;0.10;0.10;;;;;;;;;;5115173;28;20434;-43
2023/08/28 08:48:00;;;;;;;0.10;0.10;;;;;;;;;;5118245;28;20399;-44
2023/08/28 08:50:26;;;;;;;0.10;0.10;;;;;;;;;;5118781;28;20047;-44
2023/08/28 08:52:53;;;;;;;0.10;0.10;;;;;;;;;;5114736;28;20072;-43
2023/08/28 08:55:39;;;;;;;0.10;0.10;;;;;;;;;;5122776;28;20398;-43
2023/08/28 08:58:09;;;;;;;0.10;0.10;;;;;;;;;;5104547;27;20031;-43
2023/08/28 09:00:38;;;;;;;0.10;0.10;;;;;;;;;;5116820;27;20043;-45
2023/08/28 09:03:05;;;;;;;0.10;0.10;;;;;;;;;;5114904;27;20085;-43
2023/08/28 09:05:32;;;;;;;0.10;0.10;;;;;;;;;;5116930;28;20569;-43
2023/08/28 09:07:59;;;;;;;0.10;0.10;;;;;;;;;;5093963;27;20647;-43
2023/08/28 09:10:24;;;;;;;0.10;0.10;;;;;;;;;;5114493;27;20146;-44
2023/08/28 09:12:51;;;;;;;0.10;0.10;;;;;;;;;;5114402;27;20190;-42
2023/08/28 09:15:17;;;;;;;0.10;0.10;;;;;;;;;;5119890;28;20078;-45
2023/08/28 09:17:42;;;;;;;0.22;0.22;;;;;;;;;;5121402;27;20039;-43
2023/08/28 09:20:13;;;;;;;0.10;0.10;;;;;;;;;;5121578;28;20118;-43
2023/08/28 09:22:43;;;;;;;0.10;0.10;;;;;;;;;;5124247;27;20505;-43
2023/08/28 09:25:19;;;;;;;0.10;0.10;;;;;;;;;;5119036;27;20040;-43
2023/08/28 09:27:45;;;;;;;0.10;0.10;;;;;;;;;;5113786;27;20175;-44
2023/08/28 09:30:31;;;;;;;0.10;0.10;;;;;;;;;;5115164;28;20619;-43
2023/08/28 09:32:58;;;;;;;0.10;0.10;;;;;;;;;;5105013;28;20431;-43
2023/08/28 09:35:25;;;;;;;0.10;0.10;;;;;;;;;;5128051;27;20034;-43
2023/08/28 09:37:58;;;;;;;0.10;0.10;;;;;;;;;;5119377;27;20132;-43
2023/08/28 09:40:27;;;;;;;0.10;0.10;;;;;;;;;;5114067;27;20137;-43
2023/08/28 09:42:52;;;;;;;0.10;0.10;;;;;;;;;;5117646;27;20043;-43
2023/08/28 09:45:18;;;;;;;0.10;0.10;;;;;;;;;;5116118;27;20053;-44
2023/08/28 09:47:43;;;;;;;0.10;0.10;;;;;;;;;;5119226;27;20043;-43
2023/08/28 09:50:09;;;;;;;0.10;0.10;;;;;;;;;;5109188;27;20055;-48
2023/08/28 09:52:35;;;;;;;0.20;0.20;;;;;;;;;;5108887;27;20145;-44
2023/08/28 09:55:04;;;;;;;0.10;0.10;;;;;;;;;;5115508;27;20043;-45
2023/08/28 09:57:30;;;;;;;0.10;0.10;;;;;;;;;;5116483;27;20043;-44
2023/08/28 09:59:55;;;;;;;0.10;0.10;;;;;;;;;;5117718;27;20081;-44
2023/08/28 10:02:21;;;;;;;0.10;0.10;;;;;;;;;;5116986;27;20068;-42
2023/08/28 10:04:51;;;;;;;0.10;0.10;;;;;;;;;;5117095;27;20062;-43
2023/08/28 10:07:21;;;;;;;0.10;0.10;;;;;;;;;;5114357;28;20482;-43
2023/08/28 10:09:47;;;;;;;0.10;0.10;;;;;;;;;;5114065;27;20168;-44
2023/08/28 10:12:13;;;;;;;0.10;0.10;;;;;;;;;;5119666;27;20146;-45
2023/08/28 10:14:39;;;;;;;0.10;0.10;;;;;;;;;;5114066;27;20047;-43
2023/08/28 10:17:06;;;;;;;0.10;0.10;;;;;;;;;;5115714;27;20131;-44
2023/08/28 10:19:37;;;;;;;0.10;0.10;;;;;;;;;;5116835;28;20087;-43
2023/08/28 10:22:03;;;;;;;0.10;0.10;;;;;;;;;;5121278;27;20046;-43
2023/08/28 10:24:30;;;;;;;0.10;0.10;;;;;;;;;;5116541;27;20478;-44
2023/08/28 10:26:56;;;;;;;0.10;0.10;;;;;;;;;;5112696;27;20461;-44
2023/08/28 10:29:22;;;;;;;0.10;0.10;;;;;;;;;;5116730;27;20094;-42
2023/08/28 10:31:48;;;;;;;0.10;0.10;;;;;;;;;;5121184;27;20055;-44
2023/08/28 10:34:15;;;;;;;0.10;0.10;;;;;;;;;;5112579;27;20047;-46
2023/08/28 10:36:41;;;;;;;0.10;0.10;;;;;;;;;;5106013;27;20050;-44
2023/08/28 10:39:28;;;;;;;0.10;0.10;;;;;;;;;;5093399;28;20070;-44
2023/08/28 10:41:54;;;;;;;0.10;0.10;;;;;;;;;;5119934;28;20617;-44
2023/08/28 10:44:20;;;;;;;0.10;0.10;;;;;;;;;;5122263;28;20182;-44
2023/08/28 10:46:47;;;;;;;0.10;0.10;;;;;;;;;;5116152;27;20542;-43
2023/08/28 10:49:15;;;;;;;0.10;0.10;;;;;;;;;;5114320;27;20142;-43
2023/08/28 10:51:41;;;;;;;0.10;0.10;;;;;;;;;;5114834;27;20052;-45
2023/08/28 10:54:09;;;;;;;0.10;0.10;;;;;;;;;;5114467;27;20104;-43
2023/08/28 10:56:35;;;;;;;0.10;0.10;;;;;;;;;;5114925;27;20462;-43
2023/08/28 10:59:22;;;;;;;0.10;0.10;;;;;;;;;;5115792;27;20043;-43
2023/08/28 11:01:50;;;;;;;0.10;0.10;;;;;;;;;;5096410;27;20155;-43
2023/08/28 11:04:16;;;;;;;0.10;0.10;;;;;;;;;;5109923;27;20598;-43
2023/08/28 11:06:43;;;;;;;0.10;0.10;;;;;;;;;;5110452;27;20154;-44
2023/08/28 11:09:29;;;;;;;0.10;0.10;;;;;;;;;;5097447;27;20190;-44
2023/08/28 11:14:33;;;;;;;0.10;0.10;;;;;;;;;;5138242;27;21844;-43
2023/08/28 11:17:15;;;;;;;0.10;0.10;;;;;;;;;;5113055;27;20046;-44
2023/08/28 11:22:46;;;;;;;0.10;0.10;;;;;;;;;;5148391;27;22130;-43
2023/08/28 11:25:12;;;;;;;0.13;0.13;;;;;;;;;;5145939;27;20092;-43
2023/08/28 11:27:46;;;;;;;0.10;0.10;;;;;;;;;;5140701;27;20103;-44
2023/08/28 11:30:12;;;;;;;0.10;0.10;;;;;;;;;;5115597;27;20520;-45
2023/08/28 11:32:39;;;;;;;0.10;0.10;;;;;;;;;;5142341;27;20543;-45
2023/08/28 11:35:08;;;;;;;0.10;0.10;;;;;;;;;;5135946;27;20401;-45
2023/08/28 11:37:35;;;;;;;0.10;0.10;;;;;;;;;;5140148;27;20512;-44
2023/08/28 11:40:01;;;;;;;0.10;0.10;;;;;;;;;;5145031;27;20498;-43
2023/08/28 11:42:28;;;;;;;0.10;0.10;;;;;;;;;;5134768;27;20120;-44
2023/08/28 11:44:53;;;;;;;0.20;0.20;;;;;;;;;;5122870;27;20049;-44
2023/08/28 11:47:23;;;;;;;0.10;0.10;;;;;;;;;;5123857;27;20039;-45
2023/08/28 11:49:48;;;;;;;0.10;0.10;;;;;;;;;;5123605;27;20050;-43
2023/08/28 11:52:16;;;;;;;0.10;0.10;;;;;;;;;;5124968;27;20042;-43
2023/08/28 11:54:42;;;;;;;;;;;;;;;;;;5127641;27;20057;-43
2023/08/28 11:57:08;;;;;;;0.10;0.10;;;;;;;;;;5125088;27;19923;-44
2023/08/28 11:59:34;;;;;;;0.10;0.10;;;;;;;;;;5126769;27;20348;-44
2023/08/28 12:01:59;;;;;;;0.10;0.10;;;;;;;;;;5134326;27;20141;-44
2023/08/28 12:04:25;;;;;;;0.10;0.10;;;;;;;;;;5136772;27;20646;-45
2023/08/28 12:06:51;;;;;;;0.10;0.10;;;;;;;;;;5136441;27;20034;-45
2023/08/28 12:09:17;;;;;;;0.10;0.10;;;;;;;;;;5135293;27;20039;-44
2023/08/28 12:11:42;;;;;;;0.15;0.15;;;;;;;;;;5130887;27;20603;-45
2023/08/28 12:14:13;;;;;;;0.10;0.10;;;;;;;;;;5137290;27;20039;-45
2023/08/28 12:16:39;;;;;;;0.10;0.10;;;;;;;;;;5137395;27;20039;-46
2023/08/28 12:19:04;;;;;;;0.10;0.10;;;;;;;;;;5140498;27;20122;-43
2023/08/28 12:21:35;;;;;;;0.10;0.10;;;;;;;;;;5136561;27;20035;-45
2023/08/28 12:24:00;;;;;;;0.10;0.10;;;;;;;;;;5137409;27;20099;-44
2023/08/28 12:26:26;;;;;;;0.10;0.10;;;;;;;;;;5131482;27;20059;-43
2023/08/28 12:28:52;;;;;;;0.10;0.10;;;;;;;;;;5138717;27;20812;-44
2023/08/28 12:31:34;;;;;;;0.10;0.10;;;;;;;;;;5135675;27;20544;-43
2023/08/28 12:34:07;;;;;;;0.10;0.10;;;;;;;;;;5118972;27;20047;-44
2023/08/28 12:36:34;;;;;;;0.10;0.10;;;;;;;;;;5118563;28;20115;-53
2023/08/28 12:38:59;;;;;;;0.10;0.10;;;;;;;;;;5122503;27;20702;-55
2023/08/28 12:41:25;;;;;;;0.10;0.10;;;;;;;;;;5123013;28;20043;-58
2023/08/28 12:43:50;;;;;;;0.10;0.10;;;;;;;;;;5122822;27;20077;-44
2023/08/28 12:46:16;;;;;;;0.10;0.10;;;;;;;;;;5122309;27;20044;-43
2023/08/28 12:48:43;;;;;;;0.10;0.10;;;;;;;;;;5122882;27;20451;-44
2023/08/28 12:51:09;;;;;;;0.10;0.10;;;;;;;;;;5123915;28;20104;-43
2023/08/28 12:53:34;;;;;;;0.10;0.10;;;;;;;;;;5123691;28;20098;-43
2023/08/28 12:56:00;;;;;;;0.10;0.10;;;;;;;;;;5124950;28;20046;-43
2023/08/28 12:58:25;;;;;;;0.10;0.10;;;;;;;;;;5122762;27;20051;-43
2023/08/28 13:00:51;;;;;;;0.10;0.10;;;;;;;;;;5122932;27;20035;-44
2023/08/28 13:03:16;;;;;;;0.10;0.10;;;;;;;;;;5125777;28;20044;-44
2023/08/28 13:05:42;;;;;;;0.10;0.10;;;;;;;;;;5126896;28;20550;-43
2023/08/28 13:08:08;;;;;;;0.10;0.10;;;;;;;;;;5126646;27;20055;-43
2023/08/28 13:10:35;;;;;;;0.10;0.10;;;;;;;;;;5122788;27;20518;-43
2023/08/28 13:13:02;;;;;;;;;;;;;;;;;;5123331;28;20047;-43
2023/08/28 13:15:27;;;;;;;0.10;0.10;;;;;;;;;;5126369;28;19928;-44
2023/08/28 13:17:53;;;;;;;0.10;0.10;;;;;;;;;;5128450;27;20055;-43
2023/08/28 13:20:20;;;;;;;0.10;0.10;;;;;;;;;;5128164;28;20039;-43
2023/08/28 13:22:46;;;;;;;0.10;0.10;;;;;;;;;;5131336;27;20089;-43
2023/08/28 13:25:12;;;;;;;0.10;0.10;;;;;;;;;;5127263;27;20059;-44
2023/08/28 13:27:37;;;;;;;0.10;0.10;;;;;;;;;;5128115;27;20050;-44
2023/08/28 13:30:05;;;;;;;0.10;0.10;;;;;;;;;;5123191;28;20327;-43
2023/08/28 13:32:30;;;;;;;0.10;0.10;;;;;;;;;;5123657;27;20092;-43
2023/08/28 13:34:56;;;;;;;0.10;0.10;;;;;;;;;;5126135;28;20043;-43
2023/08/28 13:37:22;;;;;;;0.10;0.10;;;;;;;;;;5125557;27;20100;-43
2023/08/28 13:39:48;;;;;;;0.10;0.10;;;;;;;;;;5125619;28;20055;-44
2023/08/28 13:42:13;;;;;;;0.10;0.10;;;;;;;;;;5126434;28;20388;-43
2023/08/28 13:44:39;;;;;;;0.10;0.10;;;;;;;;;;5118828;27;20078;-43
2023/08/28 13:47:06;;;;;;;0.10;0.10;;;;;;;;;;5120883;27;20055;-43
2023/08/28 13:49:31;;;;;;;0.10;0.10;;;;;;;;;;5121224;27;20047;-43
2023/08/28 13:51:57;;;;;;;0.10;0.10;;;;;;;;;;5128304;28;20043;-44
2023/08/28 13:54:22;;;;;;;0.10;0.10;;;;;;;;;;5127500;28;20388;-44
2023/08/28 13:56:48;;;;;;;0.10;0.10;;;;;;;;;;5134604;27;20099;-43
2023/08/28 13:59:13;;;;;;;0.10;0.10;;;;;;;;;;5132693;27;20039;-42
2023/08/28 14:01:40;;;;;;;0.10;0.10;;;;;;;;;;5122446;27;20058;-43
2023/08/28 14:04:06;;;;;;;0.10;0.10;;;;;;;;;;5128511;28;20071;-43
2023/08/28 14:06:32;;;;;;;0.10;0.10;;;;;;;;;;5128520;28;20487;-42
2023/08/28 14:08:57;;;;;;;0.10;0.10;;;;;;;;;;5136185;27;20055;-43
2023/08/28 14:11:23;;;;;;;0.10;0.10;;;;;;;;;;5129226;28;20050;-44
2023/08/28 14:13:49;;;;;;;0.10;0.10;;;;;;;;;;5128910;28;20051;-43
2023/08/28 14:16:14;;;;;;;0.10;0.10;;;;;;;;;;5129291;27;20039;-44
2023/08/28 14:18:40;;;;;;;0.10;0.10;;;;;;;;;;5141913;27;20521;-42
2023/08/28 14:21:05;;;;;;;0.13;0.13;;;;;;;;;;5140141;27;20084;-43
2023/08/28 14:23:31;;;;;;;0.10;0.10;;;;;;;;;;5104048;27;20108;-43
2023/08/28 14:26:02;;;;;;;0.10;0.10;;;;;;;;;;5113574;28;20130;-43
2023/08/28 14:28:28;;;;;;;0.10;0.10;;;;;;;;;;5138626;27;20557;-43
2023/08/28 14:30:53;;;;;;;0.10;0.10;;;;;;;;;;5142166;27;20142;-43
2023/08/28 14:33:19;;;;;;;0.10;0.10;;;;;;;;;;5127944;28;20758;-43
2023/08/28 14:35:45;;;;;;;0.10;0.10;;;;;;;;;;5127788;28;20051;-43
2023/08/28 14:38:11;;;;;;;0.10;0.10;;;;;;;;;;5136561;27;20449;-43
2023/08/28 14:40:36;;;;;;;0.20;0.20;;;;;;;;;;5144770;27;20691;-43
2023/08/28 14:43:12;;;;;;;0.10;0.10;;;;;;;;;;5112140;28;20127;-43
2023/08/28 14:45:38;;;;;;;0.10;0.10;;;;;;;;;;5128638;28;20043;-42
2023/08/28 14:48:04;;;;;;;0.10;0.10;;;;;;;;;;5136566;27;20043;-43